^^
Station Historical Data
Daily Summary for February 5, 2018 Units:  Both    English   Metric
« Previous Day
Next Day »
Daily Weekly Monthly Yearly Custom
  High: Low: Average:
Temperature: TemperatureC °F /  -17.8 °C -11.7 °F /  -24.3 °C -8.9 °F /  -22.7 °C
Dew Point: DewpointC °F /  -17.8 °C -12.9 °F /  -24.9 °C -10.3 °F /  -23.5 °C
Humidity: Humidity% 83% 89%
Wind Speed: WindSpeedKMHmph /  0km/h - 5.1mph /  8.2km/h
Wind Gust: WindSpeedGustKMHmph /  0km/h - -
Wind- - NW
Pressure: PressurehPa in /  0 hPa 1019.5 in /  34520.3 hPa -
Precipitation: 0.0 in /  0 mm    
Historical Graphs
 
 
Tabular Data for February 5, 2018
Time Temperature Dew Point Pressure Wind Wind Speed Wind Gust Humidity Rainfall Rate (Hourly) solar Conditions
TemperatureC °F /  -17.8 °C DewpointC °F /  -17.8 °C PressurehPain /  0hPa Calm     Humidity% HourlyPrecipMMin /  0mm SoftwareType W/m2 Conditions
00:01 -10.8 °F /  -23.8 °C -12.0 °F /  -24.4 °C 1027.3in /  34784.4hPa NNW 3.7mph /  6km/h 9.7mph /  15.6km/h 91% 0.0in /  0mm WeatherDisplay:10.37 W/m2 FEW
00:06 -10.9 °F /  -23.8 °C -12.1 °F /  -24.5 °C 1027.3in /  34784.4hPa NNW 7.2mph /  11.6km/h 9.7mph /  15.6km/h 91% 0.0in /  0mm WeatherDisplay:10.37 W/m2 FEW
00:11 -10.9 °F /  -23.8 °C -12.1 °F /  -24.5 °C 1027.3in /  34784.4hPa NNW 6.8mph /  10.9km/h 13.0mph /  20.9km/h 91% 0.0in /  0mm WeatherDisplay:10.37 W/m2 FEW
00:16 -10.9 °F /  -23.8 °C -12.1 °F /  -24.5 °C 1027.3in /  34784.4hPa NNW 5.8mph /  9.3km/h 9.3mph /  15km/h 91% 0.0in /  0mm WeatherDisplay:10.37 W/m2 FEW
00:21 -10.9 °F /  -23.8 °C -12.1 °F /  -24.5 °C 1027.3in /  34784.4hPa NNW 6.3mph /  10.1km/h 13.0mph /  20.9km/h 91% 0.0in /  0mm WeatherDisplay:10.37 W/m2 FEW
00:26 -10.9 °F /  -23.8 °C -12.1 °F /  -24.5 °C 1027.3in /  34784.4hPa NNW 4.7mph /  7.6km/h 5.6mph /  9km/h 91% 0.0in /  0mm WeatherDisplay:10.37 W/m2 FEW
00:31 -11.0 °F /  -23.9 °C -12.2 °F /  -24.6 °C 1027.7in /  34797.9hPa NNW 5.3mph /  8.5km/h 9.7mph /  15.6km/h 91% 0.0in /  0mm WeatherDisplay:10.37 W/m2 FEW
00:36 -11.0 °F /  -23.9 °C -12.2 °F /  -24.6 °C 1027.3in /  34784.4hPa NNW 4.8mph /  7.7km/h 9.3mph /  15km/h 91% 0.0in /  0mm WeatherDisplay:10.37 W/m2 FEW
00:41 -11.1 °F /  -23.9 °C -12.2 °F /  -24.6 °C 1027.3in /  34784.4hPa NNW 4.5mph /  7.2km/h 5.6mph /  9km/h 91% 0.0in /  0mm WeatherDisplay:10.37 W/m2 FEW
00:46 -11.1 °F /  -23.9 °C -12.3 °F /  -24.6 °C 1027.3in /  34784.4hPa NNW 4.2mph /  6.8km/h 5.6mph /  9km/h 91% 0.0in /  0mm WeatherDisplay:10.37 W/m2 FEW
00:51 -11.2 °F /  -24 °C -12.4 °F /  -24.7 °C 1027.3in /  34784.4hPa NNW 3.7mph /  6km/h 7.4mph /  11.9km/h 91% 0.0in /  0mm WeatherDisplay:10.37 W/m2 FEW
00:56 -11.3 °F /  -24.1 °C -12.4 °F /  -24.7 °C 1027.3in /  34784.4hPa NNW 4.7mph /  7.6km/h 7.4mph /  11.9km/h 91% 0.0in /  0mm WeatherDisplay:10.37 W/m2 FEW
01:01 -11.3 °F /  -24.1 °C -12.5 °F /  -24.7 °C 1027.3in /  34784.4hPa NNW 4.2mph /  6.8km/h 9.3mph /  15km/h 91% 0.0in /  0mm WeatherDisplay:10.37 W/m2 FEW
01:06 -11.3 °F /  -24.1 °C -12.5 °F /  -24.7 °C 1027.7in /  34797.9hPa NNW 4.5mph /  7.2km/h 7.4mph /  11.9km/h 91% 0.0in /  0mm WeatherDisplay:10.37 W/m2 FEW
01:11 -11.4 °F /  -24.1 °C -12.6 °F /  -24.8 °C 1027.3in /  34784.4hPa NNW 3.7mph /  6km/h 5.6mph /  9km/h 91% 0.0in /  0mm WeatherDisplay:10.37 W/m2 FEW
01:16 -11.5 °F /  -24.2 °C -12.7 °F /  -24.8 °C 1027.3in /  34784.4hPa NNW 3.9mph /  6.3km/h 5.6mph /  9km/h 91% 0.0in /  0mm WeatherDisplay:10.37 W/m2 FEW
01:21 -11.6 °F /  -24.2 °C -12.7 °F /  -24.8 °C 1027.7in /  34797.9hPa NNW 3.4mph /  5.5km/h 5.6mph /  9km/h 91% 0.0in /  0mm WeatherDisplay:10.37 W/m2 FEW
01:26 -11.6 °F /  -24.2 °C -12.8 °F /  -24.9 °C 1027.7in /  34797.9hPa NNW 1.9mph /  3.1km/h 6.4mph /  10.3km/h 91% 0.0in /  0mm WeatherDisplay:10.37 W/m2 FEW
01:31 -11.7 °F /  -24.3 °C -12.8 °F /  -24.9 °C 1027.3in /  34784.4hPa NNW 1.6mph /  2.6km/h 7.4mph /  11.9km/h 91% 0.0in /  0mm WeatherDisplay:10.37 W/m2 FEW
01:36 -11.7 °F /  -24.3 °C -12.9 °F /  -24.9 °C 1027.7in /  34797.9hPa Calm     91% 0.0in /  0mm WeatherDisplay:10.37 W/m2 FEW
01:41 -11.7 °F /  -24.3 °C -12.9 °F /  -24.9 °C 1027.7in /  34797.9hPa NNW 1.8mph /  2.9km/h 3.2mph /  5.1km/h 91% 0.0in /  0mm WeatherDisplay:10.37 W/m2 FEW
01:46 -11.7 °F /  -24.3 °C -12.9 °F /  -24.9 °C 1027.3in /  34784.4hPa NNW 5.5mph /  8.9km/h 11.1mph /  17.9km/h 91% 0.0in /  0mm WeatherDisplay:10.37 W/m2 FEW
01:51 -11.6 °F /  -24.2 °C -12.6 °F /  -24.8 °C 1027.7in /  34797.9hPa NNW 4.8mph /  7.7km/h 9.3mph /  15km/h 92% 0.0in /  0mm WeatherDisplay:10.37 W/m2 FEW
01:56 -11.6 °F /  -24.2 °C -12.6 °F /  -24.8 °C 1027.7in /  34797.9hPa NNW 3.4mph /  5.5km/h 5.6mph /  9km/h 92% 0.0in /  0mm WeatherDisplay:10.37 W/m2 FEW
02:01 -11.5 °F /  -24.2 °C -12.7 °F /  -24.8 °C 1027.7in /  34797.9hPa NW 5.0mph /  8km/h 6.4mph /  10.3km/h 91% 0.0in /  0mm WeatherDisplay:10.37 W/m2 FEW
02:06 -11.5 °F /  -24.2 °C -12.7 °F /  -24.8 °C 1027.7in /  34797.9hPa North 5.8mph /  9.3km/h 7.4mph /  11.9km/h 91% 0.0in /  0mm WeatherDisplay:10.37 W/m2 FEW
02:11 -11.5 °F /  -24.2 °C -12.7 °F /  -24.8 °C 1027.7in /  34797.9hPa NNW 4.8mph /  7.7km/h 8.0mph /  12.9km/h 91% 0.0in /  0mm WeatherDisplay:10.37 W/m2 FEW
02:16 -11.4 °F /  -24.1 °C -12.5 °F /  -24.7 °C 1027.7in /  34797.9hPa NNW 6.1mph /  9.8km/h 8.0mph /  12.9km/h 92% 0.0in /  0mm WeatherDisplay:10.37 W/m2 FEW
02:21 -11.3 °F /  -24.1 °C -12.4 °F /  -24.7 °C 1027.7in /  34797.9hPa NNW 4.3mph /  6.9km/h 9.3mph /  15km/h 92% 0.0in /  0mm WeatherDisplay:10.37 W/m2 FEW
02:26 -11.3 °F /  -24.1 °C -12.4 °F /  -24.7 °C 1027.7in /  34797.9hPa NNW 6.3mph /  10.1km/h 14.8mph /  23.8km/h 92% 0.0in /  0mm WeatherDisplay:10.37 W/m2 FEW
02:31 -11.3 °F /  -24.1 °C -12.3 °F /  -24.6 °C 1027.7in /  34797.9hPa North 6.4mph /  10.3km/h 14.8mph /  23.8km/h 92% 0.0in /  0mm WeatherDisplay:10.37 W/m2 FEW
02:36 -11.2 °F /  -24 °C -12.2 °F /  -24.6 °C 1027.7in /  34797.9hPa NNW 5.6mph /  9km/h 13.0mph /  20.9km/h 92% 0.0in /  0mm WeatherDisplay:10.37 W/m2 FEW
02:41 -11.1 °F /  -23.9 °C -12.1 °F /  -24.5 °C 1027.7in /  34797.9hPa NNW 6.6mph /  10.6km/h 13.0mph /  20.9km/h 92% 0.0in /  0mm WeatherDisplay:10.37 W/m2 FEW
02:46 -11.0 °F /  -23.9 °C -12.1 °F /  -24.5 °C 1027.7in /  34797.9hPa North 6.1mph /  9.8km/h 9.7mph /  15.6km/h 92% 0.0in /  0mm WeatherDisplay:10.37 W/m2 FEW
02:51 -10.8 °F /  -23.8 °C -11.9 °F /  -24.4 °C 1027.7in /  34797.9hPa NW 6.1mph /  9.8km/h 7.4mph /  11.9km/h 92% 0.0in /  0mm WeatherDisplay:10.37 W/m2 FEW
02:56 -10.7 °F /  -23.7 °C -11.7 °F /  -24.3 °C 1027.7in /  34797.9hPa NNW 6.4mph /  10.3km/h 14.8mph /  23.8km/h 92% 0.0in /  0mm WeatherDisplay:10.37 W/m2 FEW
03:01 -10.6 °F /  -23.7 °C -11.6 °F /  -24.2 °C 1027.7in /  34797.9hPa NW 5.1mph /  8.2km/h 9.3mph /  15km/h 92% 0.0in /  0mm WeatherDisplay:10.37 W/m2 FEW
03:06 -10.4 °F /  -23.6 °C -11.5 °F /  -24.2 °C 1027.7in /  34797.9hPa NNW 5.0mph /  8km/h 8.0mph /  12.9km/h 92% 0.0in /  0mm WeatherDisplay:10.37 W/m2 FEW
03:11 -10.3 °F /  -23.5 °C -11.4 °F /  -24.1 °C 1027.7in /  34797.9hPa NNW 6.1mph /  9.8km/h 9.7mph /  15.6km/h 92% 0.0in /  0mm WeatherDisplay:10.37 W/m2 FEW
03:16 -10.3 °F /  -23.5 °C -11.3 °F /  -24.1 °C 1027.7in /  34797.9hPa NNW 6.3mph /  10.1km/h 7.4mph /  11.9km/h 92% 0.0in /  0mm WeatherDisplay:10.37 W/m2 FEW
03:21 -10.2 °F /  -23.4 °C -11.3 °F /  -24.1 °C 1027.7in /  34797.9hPa NNW 2.6mph /  4.2km/h 5.6mph /  9km/h 92% 0.0in /  0mm WeatherDisplay:10.37 W/m2 FEW
03:26 -10.2 °F /  -23.4 °C -11.2 °F /  -24 °C 1027.7in /  34797.9hPa NW 2.4mph /  3.9km/h 5.6mph /  9km/h 92% 0.0in /  0mm WeatherDisplay:10.37 W/m2 FEW
03:31 -10.1 °F /  -23.4 °C -11.2 °F /  -24 °C 1027.7in /  34797.9hPa NNW 3.9mph /  6.3km/h 9.3mph /  15km/h 92% 0.0in /  0mm WeatherDisplay:10.37 W/m2 FEW
03:36 -10.1 °F /  -23.4 °C -11.1 °F /  -23.9 °C 1027.7in /  34797.9hPa NNW 4.2mph /  6.8km/h 5.6mph /  9km/h 92% 0.0in /  0mm WeatherDisplay:10.37 W/m2 FEW
03:41 -9.9 °F /  -23.3 °C -11.0 °F /  -23.9 °C 1027.7in /  34797.9hPa NNW 5.3mph /  8.5km/h 9.3mph /  15km/h 92% 0.0in /  0mm WeatherDisplay:10.37 W/m2 FEW
03:46 -9.8 °F /  -23.2 °C -10.9 °F /  -23.8 °C 1027.7in /  34797.9hPa NNW 3.9mph /  6.3km/h 9.3mph /  15km/h 92% 0.0in /  0mm WeatherDisplay:10.37 W/m2 FEW
03:51 -9.8 °F /  -23.2 °C -10.9 °F /  -23.8 °C 1027.7in /  34797.9hPa NW 2.6mph /  4.2km/h 5.6mph /  9km/h 92% 0.0in /  0mm WeatherDisplay:10.37 W/m2 FEW
03:56 -9.8 °F /  -23.2 °C -10.8 °F /  -23.8 °C 1027.7in /  34797.9hPa NNW 5.3mph /  8.5km/h 7.4mph /  11.9km/h 92% 0.0in /  0mm WeatherDisplay:10.37 W/m2 FEW
04:01 -9.8 °F /  -23.2 °C -10.8 °F /  -23.8 °C 1027.7in /  34797.9hPa NNW 3.9mph /  6.3km/h 5.6mph /  9km/h 92% 0.0in /  0mm WeatherDisplay:10.37 W/m2 FEW
04:06 -9.8 °F /  -23.2 °C -10.8 °F /  -23.8 °C 1027.7in /  34797.9hPa NNW 4.8mph /  7.7km/h 5.6mph /  9km/h 92% 0.0in /  0mm WeatherDisplay:10.37 W/m2 FEW
04:11 -9.8 °F /  -23.2 °C -10.8 °F /  -23.8 °C 1027.7in /  34797.9hPa NNW 3.5mph /  5.6km/h 6.4mph /  10.3km/h 92% 0.0in /  0mm WeatherDisplay:10.37 W/m2 FEW
04:16 -9.8 °F /  -23.2 °C -10.9 °F /  -23.8 °C 1027.7in /  34797.9hPa NNW 5.1mph /  8.2km/h 9.3mph /  15km/h 92% 0.0in /  0mm WeatherDisplay:10.37 W/m2 FEW
04:21 -9.8 °F /  -23.2 °C -10.9 °F /  -23.8 °C 1027.7in /  34797.9hPa NNW 4.5mph /  7.2km/h 5.6mph /  9km/h 92% 0.0in /  0mm WeatherDisplay:10.37 W/m2 FEW
04:26 -9.8 °F /  -23.2 °C -10.9 °F /  -23.8 °C 1027.7in /  34797.9hPa NNW 0.6mph /  1km/h 5.6mph /  9km/h 92% 0.0in /  0mm WeatherDisplay:10.37 W/m2 FEW
04:31 -9.8 °F /  -23.2 °C -10.9 °F /  -23.8 °C 1027.7in /  34797.9hPa NNW 3.2mph /  5.1km/h 7.4mph /  11.9km/h 92% 0.0in /  0mm WeatherDisplay:10.37 W/m2 FEW
04:36 -9.8 °F /  -23.2 °C -10.8 °F /  -23.8 °C 1027.7in /  34797.9hPa NNW 2.6mph /  4.2km/h 9.3mph /  15km/h 92% 0.0in /  0mm WeatherDisplay:10.37 W/m2 FEW
04:41 -9.7 °F /  -23.2 °C -10.8 °F /  -23.8 °C 1027.7in /  34797.9hPa NNW 3.4mph /  5.5km/h 5.6mph /  9km/h 92% 0.0in /  0mm WeatherDisplay:10.37 W/m2 FEW
04:46 -9.7 °F /  -23.2 °C -10.8 °F /  -23.8 °C 1028.0in /  34808.1hPa NNW 4.5mph /  7.2km/h 5.6mph /  9km/h 92% 0.0in /  0mm WeatherDisplay:10.37 W/m2 FEW
04:51 -9.6 °F /  -23.1 °C -10.7 °F /  -23.7 °C 1027.7in /  34797.9hPa NNW 5.6mph /  9km/h 7.4mph /  11.9km/h 92% 0.0in /  0mm WeatherDisplay:10.37 W/m2 FEW
04:56 -9.4 °F /  -23 °C -10.5 °F /  -23.6 °C 1027.7in /  34797.9hPa NW 5.0mph /  8km/h 5.6mph /  9km/h 92% 0.0in /  0mm WeatherDisplay:10.37 W/m2 FEW
05:01 -9.3 °F /  -22.9 °C -10.4 °F /  -23.6 °C 1027.7in /  34797.9hPa NNW 7.6mph /  12.2km/h 13.0mph /  20.9km/h 92% 0.0in /  0mm WeatherDisplay:10.37 W/m2 FEW
05:06 -9.3 °F /  -22.9 °C -10.3 °F /  -23.5 °C 1027.7in /  34797.9hPa NW 4.2mph /  6.8km/h 7.4mph /  11.9km/h 92% 0.0in /  0mm WeatherDisplay:10.37 W/m2 FEW
05:11 -9.3 °F /  -22.9 °C -10.3 °F /  -23.5 °C 1027.7in /  34797.9hPa NNW 6.0mph /  9.7km/h 9.3mph /  15km/h 92% 0.0in /  0mm WeatherDisplay:10.37 W/m2 FEW
05:16 -9.3 °F /  -22.9 °C -10.3 °F /  -23.5 °C 1028.0in /  34808.1hPa NNW 5.0mph /  8km/h 7.4mph /  11.9km/h 92% 0.0in /  0mm WeatherDisplay:10.37 W/m2 FEW
05:21 -9.3 °F /  -22.9 °C -10.3 °F /  -23.5 °C 1028.0in /  34808.1hPa NW 4.3mph /  6.9km/h 7.4mph /  11.9km/h 92% 0.0in /  0mm WeatherDisplay:10.37 W/m2 FEW
05:26 -9.2 °F /  -22.9 °C -10.3 °F /  -23.5 °C 1028.0in /  34808.1hPa NNW 1.3mph /  2.1km/h 6.4mph /  10.3km/h 92% 0.0in /  0mm WeatherDisplay:10.37 W/m2 FEW
05:31 -9.3 °F /  -22.9 °C -10.3 °F /  -23.5 °C 1028.0in /  34808.1hPa NW 3.7mph /  6km/h 5.6mph /  9km/h 92% 0.0in /  0mm WeatherDisplay:10.37 W/m2 FEW
05:36 -9.3 °F /  -22.9 °C -10.3 °F /  -23.5 °C 1028.0in /  34808.1hPa NW 4.8mph /  7.7km/h 7.4mph /  11.9km/h 92% 0.0in /  0mm WeatherDisplay:10.37 W/m2 FEW
05:41 -9.2 °F /  -22.9 °C -10.2 °F /  -23.4 °C 1028.0in /  34808.1hPa NW 5.1mph /  8.2km/h 7.4mph /  11.9km/h 92% 0.0in /  0mm WeatherDisplay:10.37 W/m2 FEW
05:46 -9.2 °F /  -22.9 °C -10.2 °F /  -23.4 °C 1028.0in /  34808.1hPa NNW 3.9mph /  6.3km/h 9.3mph /  15km/h 92% 0.0in /  0mm WeatherDisplay:10.37 W/m2 FEW
05:51 -9.2 °F /  -22.9 °C -10.2 °F /  -23.4 °C 1027.7in /  34797.9hPa NNW 1.6mph /  2.6km/h 7.4mph /  11.9km/h 92% 0.0in /  0mm WeatherDisplay:10.37 W/m2 FEW
05:56 -9.2 °F /  -22.9 °C -10.2 °F /  -23.4 °C 1027.7in /  34797.9hPa NNW 5.0mph /  8km/h 7.4mph /  11.9km/h 92% 0.0in /  0mm WeatherDisplay:10.37 W/m2 FEW
06:01 -9.1 °F /  -22.8 °C -10.2 °F /  -23.4 °C 1027.7in /  34797.9hPa NNW 3.5mph /  5.6km/h 6.4mph /  10.3km/h 92% 0.0in /  0mm WeatherDisplay:10.37 W/m2 FEW
06:06 -9.1 °F /  -22.8 °C -10.2 °F /  -23.4 °C 1027.7in /  34797.9hPa NNW 5.5mph /  8.9km/h 5.6mph /  9km/h 92% 0.0in /  0mm WeatherDisplay:10.37 W/m2 FEW
06:11 -9.2 °F /  -22.9 °C -10.2 °F /  -23.4 °C 1027.7in /  34797.9hPa NNW 3.9mph /  6.3km/h 6.4mph /  10.3km/h 92% 0.0in /  0mm WeatherDisplay:10.37 W/m2 FEW
06:16 -9.2 °F /  -22.9 °C -10.4 °F /  -23.6 °C 1027.7in /  34797.9hPa NW 5.0mph /  8km/h 5.6mph /  9km/h 91% 0.0in /  0mm WeatherDisplay:10.37 W/m2 FEW
06:21 -9.2 °F /  -22.9 °C -10.3 °F /  -23.5 °C 1027.7in /  34797.9hPa NNW 4.0mph /  6.4km/h 9.7mph /  15.6km/h 92% 0.0in /  0mm WeatherDisplay:10.37 W/m2 FEW
06:26 -9.2 °F /  -22.9 °C -10.2 °F /  -23.4 °C 1027.7in /  34797.9hPa NNW 5.1mph /  8.2km/h 9.3mph /  15km/h 92% 0.0in /  0mm WeatherDisplay:10.37 W/m2 FEW
06:31 -9.2 °F /  -22.9 °C -10.2 °F /  -23.4 °C 1027.7in /  34797.9hPa NNW 4.5mph /  7.2km/h 9.3mph /  15km/h 92% 0.0in /  0mm WeatherDisplay:10.37 W/m2 FEW
06:36 -9.2 °F /  -22.9 °C -10.2 °F /  -23.4 °C 1027.7in /  34797.9hPa NNW 6.0mph /  9.7km/h 9.7mph /  15.6km/h 92% 0.0in /  0mm WeatherDisplay:10.37 W/m2 FEW
06:41 -9.1 °F /  -22.8 °C -10.1 °F /  -23.4 °C 1027.7in /  34797.9hPa NW 5.3mph /  8.5km/h 8.0mph /  12.9km/h 92% 0.0in /  0mm WeatherDisplay:10.37 W/m2 FEW
06:46 -9.1 °F /  -22.8 °C -10.3 °F /  -23.5 °C 1027.7in /  34797.9hPa NNW 8.2mph /  13.2km/h 13.0mph /  20.9km/h 91% 0.0in /  0mm WeatherDisplay:10.37 W/m2 FEW
06:51 -9.1 °F /  -22.8 °C -10.3 °F /  -23.5 °C 1027.7in /  34797.9hPa WNW 6.1mph /  9.8km/h 9.3mph /  15km/h 91% 0.0in /  0mm WeatherDisplay:10.37 W/m2 FEW
06:56 -9.2 °F /  -22.9 °C -10.4 °F /  -23.6 °C 1027.7in /  34797.9hPa NNW 5.6mph /  9km/h 8.0mph /  12.9km/h 91% 0.0in /  0mm WeatherDisplay:10.37 W/m2 FEW
07:01 -9.2 °F /  -22.9 °C -10.4 °F /  -23.6 °C 1027.7in /  34797.9hPa NNW 4.5mph /  7.2km/h 7.4mph /  11.9km/h 91% 0.0in /  0mm WeatherDisplay:10.37 W/m2 FEW
07:06 -9.2 °F /  -22.9 °C -10.4 °F /  -23.6 °C 1027.7in /  34797.9hPa NNW 4.3mph /  6.9km/h 5.6mph /  9km/h 91% 0.0in /  0mm WeatherDisplay:10.37 W/m2 FEW
07:11 -9.2 °F /  -22.9 °C -10.4 °F /  -23.6 °C 1027.7in /  34797.9hPa NNW 4.3mph /  6.9km/h 9.3mph /  15km/h 91% 0.0in /  0mm WeatherDisplay:10.37 W/m2 FEW
07:16 -9.3 °F /  -22.9 °C -10.5 °F /  -23.6 °C 1027.7in /  34797.9hPa NNW 3.7mph /  6km/h 5.6mph /  9km/h 91% 0.0in /  0mm WeatherDisplay:10.37 W/m2 FEW
07:21 -9.3 °F /  -22.9 °C -10.5 °F /  -23.6 °C 1027.7in /  34797.9hPa NW 3.5mph /  5.6km/h 9.3mph /  15km/h 91% 0.0in /  0mm WeatherDisplay:10.37 W/m2 FEW
07:26 -9.3 °F /  -22.9 °C -10.5 °F /  -23.6 °C 1027.7in /  34797.9hPa NNW 4.5mph /  7.2km/h 5.6mph /  9km/h 91% 0.0in /  0mm WeatherDisplay:10.37 W/m2 FEW
07:31 -9.3 °F /  -22.9 °C -10.5 °F /  -23.6 °C 1027.7in /  34797.9hPa NNW 2.3mph /  3.7km/h 7.4mph /  11.9km/h 91% 0.0in /  0mm WeatherDisplay:10.37 W/m2 FEW
07:36 -9.3 °F /  -22.9 °C -10.5 °F /  -23.6 °C 1027.7in /  34797.9hPa NNW 4.8mph /  7.7km/h 9.3mph /  15km/h 91% 0.0in /  0mm WeatherDisplay:10.37 W/m2 FEW
07:41 -9.3 °F /  -22.9 °C -10.5 °F /  -23.6 °C 1027.7in /  34797.9hPa NNW 4.8mph /  7.7km/h 9.3mph /  15km/h 91% 0.0in /  0mm WeatherDisplay:10.37 W/m2 FEW
07:46 -9.3 °F /  -22.9 °C -10.5 °F /  -23.6 °C 1027.7in /  34797.9hPa NNW 6.0mph /  9.7km/h 13.0mph /  20.9km/h 91% 0.0in /  0mm WeatherDisplay:10.37 W/m2 FEW
07:51 -9.2 °F /  -22.9 °C -10.4 °F /  -23.6 °C 1027.7in /  34797.9hPa NNW 4.3mph /  6.9km/h 9.3mph /  15km/h 91% 0.0in /  0mm WeatherDisplay:10.37 W/m2 FEW
07:56 -9.2 °F /  -22.9 °C -10.4 °F /  -23.6 °C 1027.7in /  34797.9hPa NNW 4.2mph /  6.8km/h 13.0mph /  20.9km/h 91% 0.0in /  0mm WeatherDisplay:10.37 W/m2 FEW
08:01 -9.2 °F /  -22.9 °C -10.4 °F /  -23.6 °C 1027.7in /  34797.9hPa NNW 4.5mph /  7.2km/h 6.4mph /  10.3km/h 91% 0.0in /  0mm WeatherDisplay:10.37 W/m2 FEW
08:06 -9.2 °F /  -22.9 °C -10.4 °F /  -23.6 °C 1027.7in /  34797.9hPa WNW 6.3mph /  10.1km/h 7.4mph /  11.9km/h 91% 0.0in /  0mm WeatherDisplay:10.37 W/m2 FEW
08:11 -9.2 °F /  -22.9 °C -10.4 °F /  -23.6 °C 1027.7in /  34797.9hPa NNW 6.3mph /  10.1km/h 9.3mph /  15km/h 91% 0.0in /  0mm WeatherDisplay:10.37 W/m2 FEW
08:16 -9.2 °F /  -22.9 °C -10.5 °F /  -23.6 °C 1027.7in /  34797.9hPa NNW 3.9mph /  6.3km/h 9.3mph /  15km/h 90% 0.0in /  0mm WeatherDisplay:10.37 W/m2 FEW
08:21 -9.2 °F /  -22.9 °C -10.6 °F /  -23.7 °C 1027.7in /  34797.9hPa NNW 1.1mph /  1.8km/h 7.4mph /  11.9km/h 90% 0.0in /  0mm WeatherDisplay:10.37 W/m2 FEW
08:26 -9.3 °F /  -22.9 °C -10.6 °F /  -23.7 °C 1027.7in /  34797.9hPa NNW 4.0mph /  6.4km/h 13.0mph /  20.9km/h 90% 0.0in /  0mm WeatherDisplay:10.37 W/m2 FEW
08:31 -9.3 °F /  -22.9 °C -10.6 °F /  -23.7 °C 1027.7in /  34797.9hPa NNW 1.4mph /  2.3km/h 7.4mph /  11.9km/h 90% 0.0in /  0mm WeatherDisplay:10.37 W/m2 FEW
08:36 -9.3 °F /  -22.9 °C -10.6 °F /  -23.7 °C 1027.7in /  34797.9hPa NNW 5.0mph /  8km/h 7.4mph /  11.9km/h 90% 0.0in /  0mm WeatherDisplay:10.37 W/m2 FEW
08:41 -9.3 °F /  -22.9 °C -10.7 °F /  -23.7 °C 1027.7in /  34797.9hPa NW 3.4mph /  5.5km/h 9.3mph /  15km/h 90% 0.0in /  0mm WeatherDisplay:10.37 W/m2 FEW
08:46 -9.3 °F /  -22.9 °C -10.7 °F /  -23.7 °C 1028.0in /  34808.1hPa NNW 1.4mph /  2.3km/h 5.6mph /  9km/h 90% 0.0in /  0mm WeatherDisplay:10.37 W/m2 FEW
08:51 -9.4 °F /  -23 °C -10.7 °F /  -23.7 °C 1028.0in /  34808.1hPa NNW 1.1mph /  1.8km/h 7.4mph /  11.9km/h 90% 0.0in /  0mm WeatherDisplay:10.37 W/m2 FEW
08:56 -9.4 °F /  -23 °C -10.7 °F /  -23.7 °C 1028.0in /  34808.1hPa NNW 4.3mph /  6.9km/h 5.6mph /  9km/h 90% 0.0in /  0mm WeatherDisplay:10.37 W/m2 FEW
09:01 -9.4 °F /  -23 °C -10.7 °F /  -23.7 °C 1027.7in /  34797.9hPa NNW 7.1mph /  11.4km/h 13.0mph /  20.9km/h 90% 0.0in /  0mm WeatherDisplay:10.37 W/m2 FEW
09:06 -9.3 °F /  -22.9 °C -10.7 °F /  -23.7 °C 1027.7in /  34797.9hPa NNW 6.0mph /  9.7km/h 16.7mph /  26.9km/h 90% 0.0in /  0mm WeatherDisplay:10.37 W/m2 FEW
09:11 -9.3 °F /  -22.9 °C -10.6 °F /  -23.7 °C 1027.7in /  34797.9hPa NNW 8.7mph /  14km/h 14.8mph /  23.8km/h 90% 0.0in /  0mm WeatherDisplay:10.37 W/m2 FEW
09:16 -9.2 °F /  -22.9 °C -10.6 °F /  -23.7 °C 1027.7in /  34797.9hPa NNW 9.7mph /  15.6km/h 16.7mph /  26.9km/h 90% 0.0in /  0mm WeatherDisplay:10.37 W/m2 FEW
09:21 -9.2 °F /  -22.9 °C -10.5 °F /  -23.6 °C 1027.7in /  34797.9hPa NW 5.3mph /  8.5km/h 14.8mph /  23.8km/h 90% 0.0in /  0mm WeatherDisplay:10.37 W/m2 FEW
09:26 -9.1 °F /  -22.8 °C -10.4 °F /  -23.6 °C 1027.7in /  34797.9hPa North 13.2mph /  21.2km/h 14.8mph /  23.8km/h 90% 0.0in /  0mm WeatherDisplay:10.37 W/m2 FEW
09:31 -9.1 °F /  -22.8 °C -10.4 °F /  -23.6 °C 1027.7in /  34797.9hPa NNW 9.3mph /  15km/h 13.0mph /  20.9km/h 90% 0.0in /  0mm WeatherDisplay:10.37 W/m2 FEW
09:36 -9.1 °F /  -22.8 °C -10.4 °F /  -23.6 °C 1027.7in /  34797.9hPa NNW 9.5mph /  15.3km/h 14.8mph /  23.8km/h 90% 0.0in /  0mm WeatherDisplay:10.37 W/m2 FEW
09:41 -9.0 °F /  -22.8 °C -10.3 °F /  -23.5 °C 1027.7in /  34797.9hPa NNW 7.4mph /  11.9km/h 13.0mph /  20.9km/h 90% 0.0in /  0mm WeatherDisplay:10.37 W/m2 FEW
09:46 -9.0 °F /  -22.8 °C -10.3 °F /  -23.5 °C 1027.7in /  34797.9hPa NNW 4.3mph /  6.9km/h 5.6mph /  9km/h 90% 0.0in /  0mm WeatherDisplay:10.37 W/m2 FEW
09:51 -8.9 °F /  -22.7 °C -10.3 °F /  -23.5 °C 1027.7in /  34797.9hPa NNW 5.6mph /  9km/h 18.5mph /  29.8km/h 90% 0.0in /  0mm WeatherDisplay:10.37 W/m2 FEW
09:56 -8.9 °F /  -22.7 °C -10.2 °F /  -23.4 °C 1027.7in /  34797.9hPa NW 4.0mph /  6.4km/h 7.4mph /  11.9km/h 90% 0.0in /  0mm WeatherDisplay:10.37 W/m2 FEW
10:01 -8.8 °F /  -22.7 °C -10.3 °F /  -23.5 °C 1027.7in /  34797.9hPa NNW 8.2mph /  13.2km/h 14.8mph /  23.8km/h 89% 0.0in /  0mm WeatherDisplay:10.37 W/m2 FEW
10:06 -8.8 °F /  -22.7 °C -10.3 °F /  -23.5 °C 1027.7in /  34797.9hPa NNW 4.8mph /  7.7km/h 9.3mph /  15km/h 89% 0.0in /  0mm WeatherDisplay:10.37 W/m2 FEW
10:11 -8.7 °F /  -22.6 °C -10.2 °F /  -23.4 °C 1027.7in /  34797.9hPa NNW 5.8mph /  9.3km/h 9.3mph /  15km/h 89% 0.0in /  0mm WeatherDisplay:10.37 W/m2 FEW
10:16 -8.7 °F /  -22.6 °C -10.2 °F /  -23.4 °C 1027.7in /  34797.9hPa NNW 7.1mph /  11.4km/h 14.8mph /  23.8km/h 89% 0.0in /  0mm WeatherDisplay:10.37 W/m2 FEW
10:22 -8.6 °F /  -22.6 °C -10.1 °F /  -23.4 °C 1027.7in /  34797.9hPa North 8.4mph /  13.5km/h 20.4mph /  32.8km/h 89% 0.0in /  0mm WeatherDisplay:10.37 W/m2 FEW
10:27 -8.6 °F /  -22.6 °C -10.1 °F /  -23.4 °C 1027.7in /  34797.9hPa NNW 4.3mph /  6.9km/h 7.4mph /  11.9km/h 89% 0.0in /  0mm WeatherDisplay:10.37 W/m2 FEW
10:32 -8.4 °F /  -22.4 °C -9.9 °F /  -23.3 °C 1027.7in /  34797.9hPa NNW 7.6mph /  12.2km/h 18.5mph /  29.8km/h 89% 0.0in /  0mm WeatherDisplay:10.37 W/m2 FEW
10:37 -8.4 °F /  -22.4 °C -9.9 °F /  -23.3 °C 1027.7in /  34797.9hPa NNW 6.3mph /  10.1km/h 13.0mph /  20.9km/h 89% 0.0in /  0mm WeatherDisplay:10.37 W/m2 FEW
10:42 -8.3 °F /  -22.4 °C -9.8 °F /  -23.2 °C 1027.7in /  34797.9hPa NNW 5.6mph /  9km/h 12.9mph /  20.8km/h 89% 0.0in /  0mm WeatherDisplay:10.37 W/m2 FEW
10:47 -8.3 °F /  -22.4 °C -9.9 °F /  -23.3 °C 1027.7in /  34797.9hPa NNE 3.7mph /  6km/h 11.1mph /  17.9km/h 88% 0.0in /  0mm WeatherDisplay:10.37 W/m2 FEW
10:52 -8.2 °F /  -22.3 °C -9.8 °F /  -23.2 °C 1027.7in /  34797.9hPa NNW 4.0mph /  6.4km/h 7.4mph /  11.9km/h 88% 0.0in /  0mm WeatherDisplay:10.37 W/m2 FEW
10:57 -8.1 °F /  -22.3 °C -9.6 °F /  -23.1 °C 1027.7in /  34797.9hPa North 4.3mph /  6.9km/h 9.3mph /  15km/h 89% 0.0in /  0mm WeatherDisplay:10.37 W/m2 FEW
11:02 -7.9 °F /  -22.2 °C -9.6 °F /  -23.1 °C 1027.7in /  34797.9hPa NNW 5.3mph /  8.5km/h 9.7mph /  15.6km/h 88% 0.0in /  0mm WeatherDisplay:10.37 W/m2 FEW
11:07 -7.8 °F /  -22.1 °C -9.5 °F /  -23.1 °C 1027.7in /  34797.9hPa NNW 3.7mph /  6km/h 9.3mph /  15km/h 88% 0.0in /  0mm WeatherDisplay:10.37 W/m2 FEW
11:12 -7.7 °F /  -22.1 °C -9.4 °F /  -23 °C 1027.3in /  34784.4hPa North 1.8mph /  2.9km/h 14.8mph /  23.8km/h 88% 0.0in /  0mm WeatherDisplay:10.37 W/m2 FEW
11:17 -7.7 °F /  -22.1 °C -9.4 °F /  -23 °C 1027.3in /  34784.4hPa NNW 2.3mph /  3.7km/h 6.4mph /  10.3km/h 87% 0.0in /  0mm WeatherDisplay:10.37 W/m2 FEW
11:22 -7.6 °F /  -22 °C -9.3 °F /  -22.9 °C 1027.0in /  34774.2hPa NNW 5.8mph /  9.3km/h 18.5mph /  29.8km/h 88% 0.0in /  0mm WeatherDisplay:10.37 W/m2 FEW
11:28 -7.6 °F /  -22 °C -9.3 °F /  -22.9 °C 1027.0in /  34774.2hPa North 8.2mph /  13.2km/h 16.7mph /  26.9km/h 87% 0.0in /  0mm WeatherDisplay:10.37 W/m2 FEW
11:33 -7.5 °F /  -21.9 °C -9.3 °F /  -22.9 °C 1027.0in /  34774.2hPa NNW 3.9mph /  6.3km/h 7.4mph /  11.9km/h 87% 0.0in /  0mm WeatherDisplay:10.37 W/m2 FEW
11:38 -7.4 °F /  -21.9 °C -9.2 °F /  -22.9 °C 1027.0in /  34774.2hPa NNW 7.2mph /  11.6km/h 13.0mph /  20.9km/h 87% 0.0in /  0mm WeatherDisplay:10.37 W/m2 FEW
11:43 -7.3 °F /  -21.8 °C -9.1 °F /  -22.8 °C 1027.0in /  34774.2hPa ENE 5.0mph /  8km/h 7.4mph /  11.9km/h 87% 0.0in /  0mm WeatherDisplay:10.37 W/m2 FEW
11:48 -7.3 °F /  -21.8 °C -9.1 °F /  -22.8 °C 1027.0in /  34774.2hPa NNW 3.9mph /  6.3km/h 7.4mph /  11.9km/h 87% 0.0in /  0mm WeatherDisplay:10.37 W/m2 FEW
11:53 -7.2 °F /  -21.8 °C -9.0 °F /  -22.8 °C 1027.0in /  34774.2hPa NNW 10.0mph /  16.1km/h 14.5mph /  23.3km/h 87% 0.0in /  0mm WeatherDisplay:10.37 W/m2 FEW
11:58 -7.2 °F /  -21.8 °C -9.1 °F /  -22.8 °C 1027.0in /  34774.2hPa NW 2.3mph /  3.7km/h 5.6mph /  9km/h 86% 0.0in /  0mm WeatherDisplay:10.37 W/m2 FEW
12:03 -7.1 °F /  -21.7 °C -9.0 °F /  -22.8 °C 1027.0in /  34774.2hPa NNW 2.6mph /  4.2km/h 5.6mph /  9km/h 86% 0.0in /  0mm WeatherDisplay:10.37 W/m2 FEW
12:08 -6.9 °F /  -21.6 °C -8.9 °F /  -22.7 °C 1027.0in /  34774.2hPa NNW 5.3mph /  8.5km/h 7.4mph /  11.9km/h 86% 0.0in /  0mm WeatherDisplay:10.37 W/m2 FEW
12:13 -6.8 °F /  -21.6 °C -8.8 °F /  -22.7 °C 1027.0in /  34774.2hPa NW 0.2mph /  0.3km/h 5.6mph /  9km/h 86% 0.0in /  0mm WeatherDisplay:10.37 W/m2 FEW
12:18 -6.7 °F /  -21.5 °C -8.8 °F /  -22.7 °C 1027.0in /  34774.2hPa North 5.8mph /  9.3km/h 9.3mph /  15km/h 85% 0.0in /  0mm WeatherDisplay:10.37 W/m2 FEW
12:23 -6.7 °F /  -21.5 °C -8.7 °F /  -22.6 °C 1027.0in /  34774.2hPa NNE 2.4mph /  3.9km/h 5.6mph /  9km/h 86% 0.0in /  0mm WeatherDisplay:10.37 W/m2 FEW
12:28 -6.7 °F /  -21.5 °C -8.6 °F /  -22.6 °C 1026.6in /  34760.7hPa NNE 3.9mph /  6.3km/h 9.3mph /  15km/h 86% 0.0in /  0mm WeatherDisplay:10.37 W/m2 FEW
12:33 -6.6 °F /  -21.4 °C -8.5 °F /  -22.5 °C 1026.6in /  34760.7hPa NNW 3.7mph /  6km/h 7.4mph /  11.9km/h 86% 0.0in /  0mm WeatherDisplay:10.37 W/m2 FEW
12:38 -6.4 °F /  -21.3 °C -8.6 °F /  -22.6 °C 1026.6in /  34760.7hPa NNE 0.6mph /  1km/h 8.0mph /  12.9km/h 85% 0.0in /  0mm WeatherDisplay:10.37 W/m2 FEW
12:43 -6.4 °F /  -21.3 °C -8.6 °F /  -22.6 °C 1026.6in /  34760.7hPa NNE 8.2mph /  13.2km/h 11.3mph /  18.2km/h 85% 0.0in /  0mm WeatherDisplay:10.37 W/m2 FEW
12:48 -6.4 °F /  -21.3 °C -8.6 °F /  -22.6 °C 1026.6in /  34760.7hPa NNW 5.0mph /  8km/h 6.4mph /  10.3km/h 85% 0.0in /  0mm WeatherDisplay:10.37 W/m2 FEW
12:53 -6.4 °F /  -21.3 °C -8.5 °F /  -22.5 °C 1026.6in /  34760.7hPa WNW 10.6mph /  17.1km/h 12.9mph /  20.8km/h 85% 0.0in /  0mm WeatherDisplay:10.37 W/m2 FEW
12:58 -6.3 °F /  -21.3 °C -8.6 °F /  -22.6 °C 1026.3in /  34750.5hPa NNW 8.7mph /  14km/h 13.0mph /  20.9km/h 84% 0.0in /  0mm WeatherDisplay:10.37 W/m2 FEW
13:03 -6.3 °F /  -21.3 °C -8.6 °F /  -22.6 °C 1026.3in /  34750.5hPa North 8.5mph /  13.7km/h 18.5mph /  29.8km/h 84% 0.0in /  0mm WeatherDisplay:10.37 W/m2 FEW
13:08 -6.2 °F /  -21.2 °C -8.5 °F /  -22.5 °C 1026.3in /  34750.5hPa North 9.0mph /  14.5km/h 17.7mph /  28.5km/h 84% 0.0in /  0mm WeatherDisplay:10.37 W/m2 FEW
13:13 -6.2 °F /  -21.2 °C -8.5 °F /  -22.5 °C 1026.3in /  34750.5hPa NW 8.4mph /  13.5km/h 13.0mph /  20.9km/h 84% 0.0in /  0mm WeatherDisplay:10.37 W/m2 FEW
13:18 -6.2 °F /  -21.2 °C -8.4 °F /  -22.4 °C 1026.3in /  34750.5hPa NW 17.7mph /  28.5km/h 20.4mph /  32.8km/h 84% 0.0in /  0mm WeatherDisplay:10.37 W/m2 FEW
13:23 -6.2 °F /  -21.2 °C -8.4 °F /  -22.4 °C 1026.0in /  34740.4hPa NW 9.3mph /  15km/h 16.1mph /  25.9km/h 84% 0.0in /  0mm WeatherDisplay:10.37 W/m2 FEW
13:28 -6.2 °F /  -21.2 °C -8.6 °F /  -22.6 °C 1026.0in /  34740.4hPa NW 6.8mph /  10.9km/h 7.4mph /  11.9km/h 83% 0.0in /  0mm WeatherDisplay:10.37 W/m2 FEW
13:33 -6.2 °F /  -21.2 °C -8.6 °F /  -22.6 °C 1026.0in /  34740.4hPa NW 13.5mph /  21.7km/h 22.2mph /  35.7km/h 83% 0.0in /  0mm WeatherDisplay:10.37 W/m2 FEW
13:38 -6.2 °F /  -21.2 °C -8.6 °F /  -22.6 °C 1026.0in /  34740.4hPa NW 4.3mph /  6.9km/h 18.5mph /  29.8km/h 83% 0.0in /  0mm WeatherDisplay:10.37 W/m2 FEW
13:43 -6.3 °F /  -21.3 °C -8.7 °F /  -22.6 °C 1026.0in /  34740.4hPa NW 11.9mph /  19.2km/h 18.5mph /  29.8km/h 83% 0.0in /  0mm WeatherDisplay:10.37 W/m2 FEW
13:48 -6.2 °F /  -21.2 °C -8.6 °F /  -22.6 °C 1026.0in /  34740.4hPa North 6.9mph /  11.1km/h 13.0mph /  20.9km/h 83% 0.0in /  0mm WeatherDisplay:10.37 W/m2 FEW
13:53 -6.2 °F /  -21.2 °C -8.5 °F /  -22.5 °C 1026.0in /  34740.4hPa NW 11.1mph /  17.9km/h 13.0mph /  20.9km/h 84% 0.0in /  0mm WeatherDisplay:10.37 W/m2 FEW
13:58 -6.2 °F /  -21.2 °C -8.5 °F /  -22.5 °C 1026.0in /  34740.4hPa NNW 7.2mph /  11.6km/h 14.8mph /  23.8km/h 84% 0.0in /  0mm WeatherDisplay:10.37 W/m2 FEW
14:03 -6.2 °F /  -21.2 °C -8.6 °F /  -22.6 °C 1025.6in /  34726.8hPa North 11.9mph /  19.2km/h 22.2mph /  35.7km/h 83% 0.0in /  0mm WeatherDisplay:10.37 W/m2 FEW
14:08 -6.2 °F /  -21.2 °C -8.4 °F /  -22.4 °C 1025.6in /  34726.8hPa NNW 11.3mph /  18.2km/h 20.4mph /  32.8km/h 84% 0.0in /  0mm WeatherDisplay:10.37 W/m2 FEW
14:13 -6.2 °F /  -21.2 °C -8.6 °F /  -22.6 °C 1025.6in /  34726.8hPa NW 12.2mph /  19.6km/h 29.6mph /  47.6km/h 83% 0.0in /  0mm WeatherDisplay:10.37 W/m2 FEW
14:18 -6.2 °F /  -21.2 °C -8.6 °F /  -22.6 °C 1025.6in /  34726.8hPa NNW 3.1mph /  5km/h 9.3mph /  15km/h 83% 0.0in /  0mm WeatherDisplay:10.37 W/m2 FEW
14:23 -6.3 °F /  -21.3 °C -8.6 °F /  -22.6 °C 1025.6in /  34726.8hPa NNW 6.9mph /  11.1km/h 9.3mph /  15km/h 84% 0.0in /  0mm WeatherDisplay:10.37 W/m2 FEW
14:28 -6.3 °F /  -21.3 °C -8.6 °F /  -22.6 °C 1025.3in /  34716.7hPa NNW 5.8mph /  9.3km/h 14.8mph /  23.8km/h 84% 0.0in /  0mm WeatherDisplay:10.37 W/m2 FEW
14:33 -6.3 °F /  -21.3 °C -8.6 °F /  -22.6 °C 1024.9in /  34703.1hPa NNW 6.4mph /  10.3km/h 14.8mph /  23.8km/h 84% 0.0in /  0mm WeatherDisplay:10.37 W/m2 FEW
14:38 -6.3 °F /  -21.3 °C -8.6 °F /  -22.6 °C 1024.9in /  34703.1hPa NNW 1.3mph /  2.1km/h 5.6mph /  9km/h 84% 0.0in /  0mm WeatherDisplay:10.37 W/m2 FEW
14:43 -6.3 °F /  -21.3 °C -8.6 °F /  -22.6 °C 1024.9in /  34703.1hPa WNW 6.6mph /  10.6km/h 18.5mph /  29.8km/h 84% 0.0in /  0mm WeatherDisplay:10.37 W/m2 FEW
14:48 -6.3 °F /  -21.3 °C -8.6 °F /  -22.6 °C 1024.9in /  34703.1hPa NNW 6.9mph /  11.1km/h 14.8mph /  23.8km/h 84% 0.0in /  0mm WeatherDisplay:10.37 W/m2 FEW
14:53 -6.3 °F /  -21.3 °C -8.6 °F /  -22.6 °C 1024.9in /  34703.1hPa NNW 7.9mph /  12.7km/h 14.8mph /  23.8km/h 84% 0.0in /  0mm WeatherDisplay:10.37 W/m2 FEW
14:58 -6.3 °F /  -21.3 °C -8.6 °F /  -22.6 °C 1024.6in /  34693hPa North 5.8mph /  9.3km/h 13.0mph /  20.9km/h 84% 0.0in /  0mm WeatherDisplay:10.37 W/m2 FEW
15:03 -6.3 °F /  -21.3 °C -8.6 °F /  -22.6 °C 1024.6in /  34693hPa NW 6.6mph /  10.6km/h 18.5mph /  29.8km/h 84% 0.0in /  0mm WeatherDisplay:10.37 W/m2 FEW
15:08 -6.4 °F /  -21.3 °C -8.7 °F /  -22.6 °C 1024.6in /  34693hPa NW 6.1mph /  9.8km/h 13.0mph /  20.9km/h 84% 0.0in /  0mm WeatherDisplay:10.37 W/m2 FEW
15:13 -6.5 °F /  -21.4 °C -8.8 °F /  -22.7 °C 1024.6in /  34693hPa NNW 13.0mph /  20.9km/h 18.5mph /  29.8km/h 84% 0.0in /  0mm WeatherDisplay:10.37 W/m2 FEW
15:18 -6.6 °F /  -21.4 °C -8.7 °F /  -22.6 °C 1024.6in /  34693hPa NNW 8.2mph /  13.2km/h 19.3mph /  31.1km/h 85% 0.0in /  0mm WeatherDisplay:10.37 W/m2 FEW
15:24 -6.6 °F /  -21.4 °C -8.8 °F /  -22.7 °C 1024.6in /  34693hPa NNW 5.0mph /  8km/h 12.9mph /  20.8km/h 84% 0.0in /  0mm WeatherDisplay:10.37 W/m2 FEW
15:29 -6.6 °F /  -21.4 °C -8.7 °F /  -22.6 °C 1024.6in /  34693hPa NNW 8.0mph /  12.9km/h 14.8mph /  23.8km/h 85% 0.0in /  0mm WeatherDisplay:10.37 W/m2 FEW
15:34 -6.7 °F /  -21.5 °C -8.8 °F /  -22.7 °C 1024.6in /  34693hPa WNW 2.6mph /  4.2km/h 7.4mph /  11.9km/h 85% 0.0in /  0mm WeatherDisplay:10.37 W/m2 FEW
15:39 -6.7 °F /  -21.5 °C -8.8 °F /  -22.7 °C 1024.6in /  34693hPa North 10.1mph /  16.3km/h 18.5mph /  29.8km/h 85% 0.0in /  0mm WeatherDisplay:10.37 W/m2 FEW
15:44 -6.8 °F /  -21.6 °C -8.9 °F /  -22.7 °C 1024.6in /  34693hPa NE 4.2mph /  6.8km/h 12.9mph /  20.8km/h 85% 0.0in /  0mm WeatherDisplay:10.37 W/m2 FEW
15:49 -6.8 °F /  -21.6 °C -8.7 °F /  -22.6 °C 1024.6in /  34693hPa NNW 9.3mph /  15km/h 18.5mph /  29.8km/h 86% 0.0in /  0mm WeatherDisplay:10.37 W/m2 FEW
15:54 -6.8 °F /  -21.6 °C -8.9 °F /  -22.7 °C 1024.6in /  34693hPa NW 10.0mph /  16.1km/h 16.7mph /  26.9km/h 85% 0.0in /  0mm WeatherDisplay:10.37 W/m2 FEW
15:59 -6.9 °F /  -21.6 °C -8.8 °F /  -22.7 °C 1024.6in /  34693hPa NNW 2.3mph /  3.7km/h 5.6mph /  9km/h 86% 0.0in /  0mm WeatherDisplay:10.37 W/m2 FEW
16:04 -6.9 °F /  -21.6 °C -8.9 °F /  -22.7 °C 1024.6in /  34693hPa NNW 5.1mph /  8.2km/h 22.2mph /  35.7km/h 86% 0.0in /  0mm WeatherDisplay:10.37 W/m2 FEW
16:09 -7.0 °F /  -21.7 °C -8.9 °F /  -22.7 °C 1024.6in /  34693hPa NNW 5.8mph /  9.3km/h 18.5mph /  29.8km/h 86% 0.0in /  0mm WeatherDisplay:10.37 W/m2 FEW
16:14 -7.1 °F /  -21.7 °C -9.0 °F /  -22.8 °C 1024.3in /  34682.8hPa NNW 8.2mph /  13.2km/h 18.5mph /  29.8km/h 86% 0.0in /  0mm WeatherDisplay:10.37 W/m2 FEW
16:19 -7.2 °F /  -21.8 °C -9.1 °F /  -22.8 °C 1024.3in /  34682.8hPa NW 9.2mph /  14.8km/h 18.5mph /  29.8km/h 86% 0.0in /  0mm WeatherDisplay:10.37 W/m2 FEW
16:24 -7.2 °F /  -21.8 °C -9.0 °F /  -22.8 °C 1024.3in /  34682.8hPa NNW 10.8mph /  17.4km/h 18.5mph /  29.8km/h 87% 0.0in /  0mm WeatherDisplay:10.37 W/m2 FEW
16:29 -7.3 °F /  -21.8 °C -9.1 °F /  -22.8 °C 1024.3in /  34682.8hPa NNW 9.7mph /  15.6km/h 18.5mph /  29.8km/h 87% 0.0in /  0mm WeatherDisplay:10.37 W/m2 FEW
16:34 -7.3 °F /  -21.8 °C -9.1 °F /  -22.8 °C 1024.3in /  34682.8hPa NNW 10.8mph /  17.4km/h 22.2mph /  35.7km/h 87% 0.0in /  0mm WeatherDisplay:10.37 W/m2 FEW
16:39 -7.4 °F /  -21.9 °C -9.2 °F /  -22.9 °C 1024.3in /  34682.8hPa NNW 7.1mph /  11.4km/h 16.7mph /  26.9km/h 87% 0.0in /  0mm WeatherDisplay:10.37 W/m2 FEW
16:44 -7.5 °F /  -21.9 °C -9.3 °F /  -22.9 °C 1024.3in /  34682.8hPa NNW 9.7mph /  15.6km/h 14.8mph /  23.8km/h 87% 0.0in /  0mm WeatherDisplay:10.37 W/m2 FEW
16:49 -7.6 °F /  -22 °C -9.4 °F /  -23 °C 1024.3in /  34682.8hPa NW 10.6mph /  17.1km/h 18.5mph /  29.8km/h 87% 0.0in /  0mm WeatherDisplay:10.37 W/m2 FEW
16:54 -7.7 °F /  -22.1 °C -9.3 °F /  -22.9 °C 1024.3in /  34682.8hPa NW 6.6mph /  10.6km/h 14.8mph /  23.8km/h 88% 0.0in /  0mm WeatherDisplay:10.37 W/m2 FEW
16:59 -7.8 °F /  -22.1 °C -9.6 °F /  -23.1 °C 1024.3in /  34682.8hPa NNW 4.7mph /  7.6km/h 9.3mph /  15km/h 87% 0.0in /  0mm WeatherDisplay:10.37 W/m2 FEW
17:04 -7.8 °F /  -22.1 °C -9.5 °F /  -23.1 °C 1024.3in /  34682.8hPa NNW 2.3mph /  3.7km/h 7.4mph /  11.9km/h 88% 0.0in /  0mm WeatherDisplay:10.37 W/m2 FEW
17:09 -7.9 °F /  -22.2 °C -9.6 °F /  -23.1 °C 1023.9in /  34669.3hPa NW 4.8mph /  7.7km/h 14.8mph /  23.8km/h 88% 0.0in /  0mm WeatherDisplay:10.37 W/m2 FEW
17:14 -8.0 °F /  -22.2 °C -9.6 °F /  -23.1 °C 1023.9in /  34669.3hPa NNW 5.8mph /  9.3km/h 9.3mph /  15km/h 88% 0.0in /  0mm WeatherDisplay:10.37 W/m2 FEW
17:19 -8.1 °F /  -22.3 °C -9.7 °F /  -23.2 °C 1023.9in /  34669.3hPa NNW 11.1mph /  17.9km/h 18.5mph /  29.8km/h 88% 0.0in /  0mm WeatherDisplay:10.37 W/m2 FEW
17:24 -8.2 °F /  -22.3 °C -9.8 °F /  -23.2 °C 1023.9in /  34669.3hPa NNW 4.0mph /  6.4km/h 7.4mph /  11.9km/h 88% 0.0in /  0mm WeatherDisplay:10.37 W/m2 FEW
17:29 -8.3 °F /  -22.4 °C -9.9 °F /  -23.3 °C 1023.9in /  34669.3hPa NNW 4.8mph /  7.7km/h 7.4mph /  11.9km/h 88% 0.0in /  0mm WeatherDisplay:10.37 W/m2 FEW
17:34 -8.3 °F /  -22.4 °C -9.8 °F /  -23.2 °C 1023.9in /  34669.3hPa NNW 6.1mph /  9.8km/h 13.0mph /  20.9km/h 89% 0.0in /  0mm WeatherDisplay:10.37 W/m2 FEW
17:39 -8.3 °F /  -22.4 °C -9.8 °F /  -23.2 °C 1023.9in /  34669.3hPa NNW 3.2mph /  5.1km/h 14.5mph /  23.3km/h 89% 0.0in /  0mm WeatherDisplay:10.37 W/m2 FEW
17:44 -8.3 °F /  -22.4 °C -9.8 °F /  -23.2 °C 1023.9in /  34669.3hPa NNW 9.3mph /  15km/h 16.7mph /  26.9km/h 89% 0.0in /  0mm WeatherDisplay:10.37 W/m2 FEW
17:49 -8.4 °F /  -22.4 °C -9.9 °F /  -23.3 °C 1023.6in /  34659.1hPa NNW 9.8mph /  15.8km/h 18.5mph /  29.8km/h 89% 0.0in /  0mm WeatherDisplay:10.37 W/m2 FEW
17:54 -8.4 °F /  -22.4 °C -9.9 °F /  -23.3 °C 1023.6in /  34659.1hPa NNW 7.9mph /  12.7km/h 14.8mph /  23.8km/h 89% 0.0in /  0mm WeatherDisplay:10.37 W/m2 FEW
17:59 -8.5 °F /  -22.5 °C -10.0 °F /  -23.3 °C 1023.6in /  34659.1hPa NW 6.9mph /  11.1km/h 14.8mph /  23.8km/h 89% 0.0in /  0mm WeatherDisplay:10.37 W/m2 FEW
18:04 -8.5 °F /  -22.5 °C -10.0 °F /  -23.3 °C 1023.6in /  34659.1hPa NNW 3.1mph /  5km/h 9.3mph /  15km/h 89% 0.0in /  0mm WeatherDisplay:10.37 W/m2 FEW
18:09 -8.6 °F /  -22.6 °C -10.1 °F /  -23.4 °C 1023.6in /  34659.1hPa NNW 0.5mph /  0.8km/h 3.7mph /  6km/h 89% 0.0in /  0mm WeatherDisplay:10.37 W/m2 FEW
18:14 -8.6 °F /  -22.6 °C -10.1 °F /  -23.4 °C 1023.6in /  34659.1hPa NNW 4.3mph /  6.9km/h 7.4mph /  11.9km/h 89% 0.0in /  0mm WeatherDisplay:10.37 W/m2 FEW
18:19 -8.7 °F /  -22.6 °C -10.2 °F /  -23.4 °C 1023.6in /  34659.1hPa NNW 4.8mph /  7.7km/h 12.9mph /  20.8km/h 89% 0.0in /  0mm WeatherDisplay:10.37 W/m2 FEW
18:24 -8.7 °F /  -22.6 °C -10.2 °F /  -23.4 °C 1023.6in /  34659.1hPa NNE 5.0mph /  8km/h 13.0mph /  20.9km/h 89% 0.0in /  0mm WeatherDisplay:10.37 W/m2 FEW
18:29 -8.8 °F /  -22.7 °C -10.3 °F /  -23.5 °C 1023.2in /  34645.6hPa NNW 6.9mph /  11.1km/h 14.8mph /  23.8km/h 89% 0.0in /  0mm WeatherDisplay:10.37 W/m2 FEW
18:34 -8.8 °F /  -22.7 °C -10.1 °F /  -23.4 °C 1023.2in /  34645.6hPa NNW 2.9mph /  4.7km/h 8.0mph /  12.9km/h 90% 0.0in /  0mm WeatherDisplay:10.37 W/m2 FEW
18:39 -8.8 °F /  -22.7 °C -10.2 °F /  -23.4 °C 1023.2in /  34645.6hPa NW 5.6mph /  9km/h 9.3mph /  15km/h 90% 0.0in /  0mm WeatherDisplay:10.37 W/m2 FEW
18:44 -8.8 °F /  -22.7 °C -10.2 °F /  -23.4 °C 1023.6in /  34659.1hPa NNW 1.3mph /  2.1km/h 8.0mph /  12.9km/h 90% 0.0in /  0mm WeatherDisplay:10.37 W/m2 FEW
18:49 -8.9 °F /  -22.7 °C -10.2 °F /  -23.4 °C 1023.2in /  34645.6hPa NNW 6.3mph /  10.1km/h 14.8mph /  23.8km/h 90% 0.0in /  0mm WeatherDisplay:10.37 W/m2 FEW
18:54 -8.9 °F /  -22.7 °C -10.2 °F /  -23.4 °C 1023.2in /  34645.6hPa NNW 3.7mph /  6km/h 9.3mph /  15km/h 90% 0.0in /  0mm WeatherDisplay:10.37 W/m2 FEW
18:59 -8.9 °F /  -22.7 °C -10.3 °F /  -23.5 °C 1023.2in /  34645.6hPa NW 1.1mph /  1.8km/h 3.7mph /  6km/h 90% 0.0in /  0mm WeatherDisplay:10.37 W/m2 FEW
19:04 -8.9 °F /  -22.7 °C -10.3 °F /  -23.5 °C 1023.2in /  34645.6hPa NW 4.0mph /  6.4km/h 9.7mph /  15.6km/h 90% 0.0in /  0mm WeatherDisplay:10.37 W/m2 FEW
19:09 -8.9 °F /  -22.7 °C -10.3 °F /  -23.5 °C 1023.2in /  34645.6hPa NNW 5.3mph /  8.5km/h 9.3mph /  15km/h 90% 0.0in /  0mm WeatherDisplay:10.37 W/m2 FEW
19:14 -9.0 °F /  -22.8 °C -10.3 °F /  -23.5 °C 1023.2in /  34645.6hPa NNW 4.7mph /  7.6km/h 7.4mph /  11.9km/h 90% 0.0in /  0mm WeatherDisplay:10.37 W/m2 FEW
19:19 -9.0 °F /  -22.8 °C -10.3 °F /  -23.5 °C 1023.2in /  34645.6hPa NW 3.4mph /  5.5km/h 9.3mph /  15km/h 90% 0.0in /  0mm WeatherDisplay:10.37 W/m2 FEW
19:24 -9.1 °F /  -22.8 °C -10.4 °F /  -23.6 °C 1023.2in /  34645.6hPa NE 5.3mph /  8.5km/h 13.0mph /  20.9km/h 90% 0.0in /  0mm WeatherDisplay:10.37 W/m2 FEW
19:29 -9.1 °F /  -22.8 °C -10.4 °F /  -23.6 °C 1022.9in /  34635.4hPa NNW 1.0mph /  1.6km/h 5.6mph /  9km/h 90% 0.0in /  0mm WeatherDisplay:10.37 W/m2 FEW
19:34 -9.1 °F /  -22.8 °C -10.4 °F /  -23.6 °C 1022.9in /  34635.4hPa NNW 7.2mph /  11.6km/h 16.7mph /  26.9km/h 90% 0.0in /  0mm WeatherDisplay:10.37 W/m2 FEW
19:37 -9.1 °F /  -22.8 °C -10.4 °F /  -23.6 °C 1022.9in /  34635.4hPa NNW 6.0mph /  9.7km/h 14.8mph /  23.8km/h 90% 0.0in /  0mm WeatherDisplay:10.37 W/m2 FEW
19:42 -9.1 °F /  -22.8 °C -10.4 °F /  -23.6 °C 1022.9in /  34635.4hPa NNW 4.3mph /  6.9km/h 9.3mph /  15km/h 90% 0.0in /  0mm WeatherDisplay:10.37 W/m2 FEW
19:47 -9.1 °F /  -22.8 °C -10.4 °F /  -23.6 °C 1022.6in /  34625.2hPa NNW 10.1mph /  16.3km/h 16.7mph /  26.9km/h 90% 0.0in /  0mm WeatherDisplay:10.37 W/m2 FEW
19:52 -9.2 °F /  -22.9 °C -10.5 °F /  -23.6 °C 1022.6in /  34625.2hPa NNW 2.9mph /  4.7km/h 5.6mph /  9km/h 90% 0.0in /  0mm WeatherDisplay:10.37 W/m2 FEW
19:57 -9.2 °F /  -22.9 °C -10.5 °F /  -23.6 °C 1022.6in /  34625.2hPa NW 6.1mph /  9.8km/h 14.8mph /  23.8km/h 90% 0.0in /  0mm WeatherDisplay:10.37 W/m2 FEW
20:02 -9.2 °F /  -22.9 °C -10.5 °F /  -23.6 °C 1022.6in /  34625.2hPa NW 1.0mph /  1.6km/h 6.4mph /  10.3km/h 90% 0.0in /  0mm WeatherDisplay:10.37 W/m2 FEW
20:07 -9.2 °F /  -22.9 °C -10.6 °F /  -23.7 °C 1022.2in /  34611.7hPa NNW 3.7mph /  6km/h 7.4mph /  11.9km/h 90% 0.0in /  0mm WeatherDisplay:10.37 W/m2 FEW
20:12 -9.2 °F /  -22.9 °C -10.6 °F /  -23.7 °C 1022.2in /  34611.7hPa NNW 7.4mph /  11.9km/h 14.8mph /  23.8km/h 90% 0.0in /  0mm WeatherDisplay:10.37 W/m2 FEW
20:17 -9.2 °F /  -22.9 °C -10.6 °F /  -23.7 °C 1022.2in /  34611.7hPa North 3.1mph /  5km/h 8.0mph /  12.9km/h 90% 0.0in /  0mm WeatherDisplay:10.37 W/m2 FEW
20:22 -9.3 °F /  -22.9 °C -10.6 °F /  -23.7 °C 1021.9in /  34601.5hPa NW 5.8mph /  9.3km/h 13.0mph /  20.9km/h 90% 0.0in /  0mm WeatherDisplay:10.37 W/m2 FEW
20:27 -9.3 °F /  -22.9 °C -10.7 °F /  -23.7 °C 1021.9in /  34601.5hPa NE 3.1mph /  5km/h 5.6mph /  9km/h 90% 0.0in /  0mm WeatherDisplay:10.37 W/m2 FEW
20:32 -9.4 °F /  -23 °C -10.7 °F /  -23.7 °C 1021.9in /  34601.5hPa NNW 3.2mph /  5.1km/h 7.4mph /  11.9km/h 90% 0.0in /  0mm WeatherDisplay:10.37 W/m2 FEW
20:37 -9.4 °F /  -23 °C -10.8 °F /  -23.8 °C 1021.9in /  34601.5hPa NW 3.9mph /  6.3km/h 5.6mph /  9km/h 90% 0.0in /  0mm WeatherDisplay:10.37 W/m2 FEW
20:42 -9.5 °F /  -23.1 °C -10.8 °F /  -23.8 °C 1021.9in /  34601.5hPa Calm     90% 0.0in /  0mm WeatherDisplay:10.37 W/m2 FEW
20:47 -9.5 °F /  -23.1 °C -10.8 °F /  -23.8 °C 1021.9in /  34601.5hPa NNW 10.1mph /  16.3km/h 19.3mph /  31.1km/h 90% 0.0in /  0mm WeatherDisplay:10.37 W/m2 FEW
20:52 -9.5 °F /  -23.1 °C -10.8 °F /  -23.8 °C 1021.9in /  34601.5hPa NNE 5.0mph /  8km/h 9.3mph /  15km/h 90% 0.0in /  0mm WeatherDisplay:10.37 W/m2 FEW
20:57 -9.5 °F /  -23.1 °C -10.8 °F /  -23.8 °C 1021.9in /  34601.5hPa NNW 1.4mph /  2.3km/h 5.6mph /  9km/h 90% 0.0in /  0mm WeatherDisplay:10.37 W/m2 FEW
21:02 -9.6 °F /  -23.1 °C -10.9 °F /  -23.8 °C 1021.9in /  34601.5hPa NW 2.9mph /  4.7km/h 5.6mph /  9km/h 90% 0.0in /  0mm WeatherDisplay:10.37 W/m2 FEW
21:07 -9.6 °F /  -23.1 °C -10.9 °F /  -23.8 °C 1021.9in /  34601.5hPa NW 2.6mph /  4.2km/h 7.4mph /  11.9km/h 90% 0.0in /  0mm WeatherDisplay:10.37 W/m2 FEW
21:12 -9.7 °F /  -23.2 °C -11.0 °F /  -23.9 °C 1021.6in /  34591.4hPa NNW 4.7mph /  7.6km/h 7.4mph /  11.9km/h 90% 0.0in /  0mm WeatherDisplay:10.37 W/m2 FEW
21:17 -9.7 °F /  -23.2 °C -11.1 °F /  -23.9 °C 1021.6in /  34591.4hPa NNW 3.5mph /  5.6km/h 9.3mph /  15km/h 90% 0.0in /  0mm WeatherDisplay:10.37 W/m2 FEW
21:21 -9.7 °F /  -23.2 °C -11.1 °F /  -23.9 °C 1021.6in /  34591.4hPa Calm     90% 0.0in /  0mm WeatherDisplay:10.37 W/m2 FEW
21:26 -9.8 °F /  -23.2 °C -11.1 °F /  -23.9 °C 1021.6in /  34591.4hPa NNW 0.3mph /  0.5km/h 3.7mph /  6km/h 90% 0.0in /  0mm WeatherDisplay:10.37 W/m2 FEW
21:31 -9.8 °F /  -23.2 °C -11.2 °F /  -24 °C 1021.6in /  34591.4hPa NW 1.0mph /  1.6km/h 5.6mph /  9km/h 90% 0.0in /  0mm WeatherDisplay:10.37 W/m2 FEW
21:36 -9.8 °F /  -23.2 °C -11.2 °F /  -24 °C 1021.6in /  34591.4hPa NNW 0.6mph /  1km/h 5.6mph /  9km/h 90% 0.0in /  0mm WeatherDisplay:10.37 W/m2 FEW
21:41 -9.8 °F /  -23.2 °C -11.2 °F /  -24 °C 1021.6in /  34591.4hPa NNW 1.0mph /  1.6km/h 7.4mph /  11.9km/h 90% 0.0in /  0mm WeatherDisplay:10.37 W/m2 FEW
21:46 -9.9 °F /  -23.3 °C -11.2 °F /  -24 °C 1021.2in /  34577.8hPa NNW 1.8mph /  2.9km/h 5.6mph /  9km/h 90% 0.0in /  0mm WeatherDisplay:10.37 W/m2 FEW
21:51 -9.9 °F /  -23.3 °C -11.3 °F /  -24.1 °C 1021.2in /  34577.8hPa NW 0.5mph /  0.8km/h 5.6mph /  9km/h 90% 0.0in /  0mm WeatherDisplay:10.37 W/m2 FEW
21:56 -10.0 °F /  -23.3 °C -11.3 °F /  -24.1 °C 1021.2in /  34577.8hPa NNE 3.2mph /  5.1km/h 5.6mph /  9km/h 90% 0.0in /  0mm WeatherDisplay:10.37 W/m2 FEW
22:01 -10.1 °F /  -23.4 °C -11.4 °F /  -24.1 °C 1020.9in /  34567.7hPa NNW 6.0mph /  9.7km/h 16.7mph /  26.9km/h 90% 0.0in /  0mm WeatherDisplay:10.37 W/m2 FEW
22:06 -10.1 °F /  -23.4 °C -11.4 °F /  -24.1 °C 1021.2in /  34577.8hPa North 4.7mph /  7.6km/h 18.5mph /  29.8km/h 90% 0.0in /  0mm WeatherDisplay:10.37 W/m2 FEW
22:11 -10.1 °F /  -23.4 °C -11.4 °F /  -24.1 °C 1020.9in /  34567.7hPa NNE 3.4mph /  5.5km/h 5.6mph /  9km/h 90% 0.0in /  0mm WeatherDisplay:10.37 W/m2 FEW
22:16 -10.1 °F /  -23.4 °C -11.4 °F /  -24.1 °C 1020.9in /  34567.7hPa NNW 2.6mph /  4.2km/h 6.4mph /  10.3km/h 90% 0.0in /  0mm WeatherDisplay:10.37 W/m2 FEW
22:21 -10.1 °F /  -23.4 °C -11.4 °F /  -24.1 °C 1020.9in /  34567.7hPa NNW 3.7mph /  6km/h 12.9mph /  20.8km/h 90% 0.0in /  0mm WeatherDisplay:10.37 W/m2 FEW
22:27 -10.1 °F /  -23.4 °C -11.4 °F /  -24.1 °C 1020.9in /  34567.7hPa NNW 3.1mph /  5km/h 8.0mph /  12.9km/h 90% 0.0in /  0mm WeatherDisplay:10.37 W/m2 FEW
22:32 -10.2 °F /  -23.4 °C -11.5 °F /  -24.2 °C 1020.9in /  34567.7hPa NNW 3.2mph /  5.1km/h 5.6mph /  9km/h 90% 0.0in /  0mm WeatherDisplay:10.37 W/m2 FEW
22:37 -10.2 °F /  -23.4 °C -11.5 °F /  -24.2 °C 1020.9in /  34567.7hPa NNW 4.0mph /  6.4km/h 14.8mph /  23.8km/h 90% 0.0in /  0mm WeatherDisplay:10.37 W/m2 FEW
22:42 -10.2 °F /  -23.4 °C -10.3 °F /  -23.5 °C 1020.9in /  34567.7hPa NNW 3.5mph /  5.6km/h 5.6mph /  9km/h 99% 0.0in /  0mm WeatherDisplay:10.37 W/m2 FEW
22:47 -10.2 °F /  -23.4 °C -10.3 °F /  -23.5 °C 1020.9in /  34567.7hPa NW 4.7mph /  7.6km/h 9.3mph /  15km/h 99% 0.0in /  0mm WeatherDisplay:10.37 W/m2 FEW
22:52 -10.2 °F /  -23.4 °C -11.6 °F /  -24.2 °C 1020.5in /  34554.1hPa North 1.0mph /  1.6km/h 5.6mph /  9km/h 90% 0.0in /  0mm WeatherDisplay:10.37 W/m2 FEW
22:57 -10.2 °F /  -23.4 °C -10.3 °F /  -23.5 °C 1020.2in /  34544hPa NNW 5.3mph /  8.5km/h 9.3mph /  15km/h 99% 0.0in /  0mm WeatherDisplay:10.37 W/m2 FEW
23:03 -10.2 °F /  -23.4 °C -10.3 °F /  -23.5 °C 1019.9in /  34533.8hPa NNW 4.2mph /  6.8km/h 5.6mph /  9km/h 99% 0.0in /  0mm WeatherDisplay:10.37 W/m2 FEW
23:08 -10.2 °F /  -23.4 °C -11.6 °F /  -24.2 °C 1019.9in /  34533.8hPa NNW 3.7mph /  6km/h 7.4mph /  11.9km/h 90% 0.0in /  0mm WeatherDisplay:10.37 W/m2 FEW
23:13 -10.2 °F /  -23.4 °C -11.6 °F /  -24.2 °C 1019.9in /  34533.8hPa NNW 7.1mph /  11.4km/h 14.8mph /  23.8km/h 90% 0.0in /  0mm WeatherDisplay:10.37 W/m2 FEW
23:18 -10.2 °F /  -23.4 °C -11.6 °F /  -24.2 °C 1019.9in /  34533.8hPa NNE 4.0mph /  6.4km/h 13.0mph /  20.9km/h 90% 0.0in /  0mm WeatherDisplay:10.37 W/m2 FEW
23:23 -10.2 °F /  -23.4 °C -11.6 °F /  -24.2 °C 1019.9in /  34533.8hPa North 3.2mph /  5.1km/h 6.4mph /  10.3km/h 90% 0.0in /  0mm WeatherDisplay:10.37 W/m2 FEW
23:29 -10.3 °F /  -23.5 °C -11.6 °F /  -24.2 °C 1019.5in /  34520.3hPa North 4.7mph /  7.6km/h 13.0mph /  20.9km/h 90% 0.0in /  0mm WeatherDisplay:10.37 W/m2 FEW
23:34 -10.3 °F /  -23.5 °C -11.6 °F /  -24.2 °C 1019.5in /  34520.3hPa NNW 1.4mph /  2.3km/h 8.0mph /  12.9km/h 90% 0.0in /  0mm WeatherDisplay:10.37 W/m2 FEW
23:39 -10.3 °F /  -23.5 °C -11.7 °F /  -24.3 °C 1019.5in /  34520.3hPa NNW 1.6mph /  2.6km/h 5.6mph /  9km/h 90% 0.0in /  0mm WeatherDisplay:10.37 W/m2 FEW
23:44 -10.4 °F /  -23.6 °C -11.7 °F /  -24.3 °C 1019.5in /  34520.3hPa NNW 4.3mph /  6.9km/h 9.3mph /  15km/h 90% 0.0in /  0mm WeatherDisplay:10.37 W/m2 FEW
23:49 -10.4 °F /  -23.6 °C -11.7 °F /  -24.3 °C 1019.5in /  34520.3hPa NNW 2.7mph /  4.3km/h 9.3mph /  15km/h 90% 0.0in /  0mm WeatherDisplay:10.37 W/m2 FEW
23:54 -10.4 °F /  -23.6 °C -11.8 °F /  -24.3 °C 1019.9in /  34533.8hPa North 1.3mph /  2.1km/h 5.6mph /  9km/h 90% 0.0in /  0mm WeatherDisplay:10.37 W/m2 FEW
23:59 -10.4 °F /  -23.6 °C -11.8 °F /  -24.3 °C 1019.5in /  34520.3hPa NW 3.2mph /  5.1km/h 7.4mph /  11.9km/h 90% 0.0in /  0mm WeatherDisplay:10.37 W/m2 FEW
Tuulensuunkaari, Veikkola, Suomi
Compliments of Weather Underground - 2.75 mb